createdAt,value
2019-02-06T00:01:51.162Z,9.90
2019-02-06T00:04:20.354Z,12.85
2019-02-06T00:06:49.253Z,8.05
2019-02-06T00:09:18.142Z,8.88
2019-02-06T00:11:47.335Z,11.43
2019-02-06T00:14:17.547Z,9.38
2019-02-06T00:16:46.567Z,7.72
2019-02-06T00:19:15.745Z,11.95
2019-02-06T00:21:44.643Z,9.43
2019-02-06T00:24:13.523Z,9.98
2019-02-06T00:26:42.508Z,7.20
2019-02-06T00:29:11.418Z,11.63
2019-02-06T00:31:40.192Z,10.00
2019-02-06T00:34:09.498Z,9.73
2019-02-06T00:36:38.380Z,14.43
2019-02-06T00:39:08.570Z,8.85
2019-02-06T00:41:38.857Z,9.70
2019-02-06T00:44:07.719Z,10.20
2019-02-06T00:46:36.503Z,10.72
2019-02-06T00:49:05.697Z,12.07
2019-02-06T00:51:34.482Z,8.75
2019-02-06T00:54:03.377Z,9.35
2019-02-06T00:56:32.477Z,9.08
2019-02-06T00:59:01.381Z,8.65
2019-02-06T01:01:30.362Z,9.28
2019-02-06T01:03:59.457Z,9.65
2019-02-06T01:06:28.862Z,8.25
2019-02-06T01:08:57.742Z,8.20
2019-02-06T01:11:26.842Z,7.05
2019-02-06T01:13:55.633Z,6.62
2019-02-06T01:16:24.437Z,5.92
2019-02-06T01:18:54.646Z,5.30
2019-02-06T01:21:26.951Z,6.65
2019-02-06T01:23:55.912Z,6.47
2019-02-06T01:26:24.905Z,7.58
2019-02-06T01:28:53.803Z,6.47
2019-02-06T01:31:23.295Z,7.20
2019-02-06T01:33:52.595Z,7.50
2019-02-06T01:36:21.495Z,7.03
2019-02-06T01:38:50.402Z,5.60
2019-02-06T01:41:20.395Z,4.58
2019-02-06T01:43:49.285Z,7.15
2019-02-06T01:46:18.655Z,6.00
2019-02-06T01:48:47.985Z,5.30
2019-02-06T01:51:16.875Z,5.17
2019-02-06T01:53:45.970Z,3.87
2019-02-06T01:56:15.010Z,5.87
2019-02-06T01:58:43.850Z,6.10
2019-02-06T02:01:12.640Z,3.62
2019-02-06T02:03:41.535Z,7.03
2019-02-06T02:06:10.419Z,5.78
2019-02-06T02:08:41.257Z,5.35
2019-02-06T02:11:10.142Z,5.80
2019-02-06T02:13:38.931Z,4.40
2019-02-06T02:16:07.827Z,4.75
2019-02-06T02:18:36.727Z,6.75
2019-02-06T02:21:05.815Z,3.92
2019-02-06T02:23:34.698Z,4.33
2019-02-06T02:26:03.595Z,6.05
2019-02-06T02:28:32.400Z,4.40
2019-02-06T02:31:01.168Z,4.42
2019-02-06T02:33:30.061Z,5.20
2019-02-06T02:35:58.953Z,4.47
2019-02-06T02:38:27.844Z,4.97
2019-02-06T02:40:56.822Z,4.90
2019-02-06T02:43:25.722Z,4.60
2019-02-06T02:45:54.612Z,4.55
2019-02-06T02:48:23.413Z,3.50
2019-02-06T02:50:52.212Z,3.98
2019-02-06T02:53:27.128Z,4.97
2019-02-06T02:55:56.212Z,4.85
2019-02-06T02:58:25.107Z,4.35
2019-02-06T03:01:01.572Z,3.72
2019-02-06T03:03:36.611Z,5.05
2019-02-06T03:06:05.597Z,5.50
2019-02-06T03:08:34.592Z,4.95
2019-02-06T03:11:03.493Z,4.25
2019-02-06T03:13:32.473Z,4.05
2019-02-06T03:16:01.366Z,3.47
2019-02-06T03:18:30.258Z,5.22
2019-02-06T03:20:59.157Z,4.12
2019-02-06T03:23:28.337Z,4.42
2019-02-06T03:25:57.121Z,5.12
2019-02-06T03:28:26.037Z,5.03
2019-02-06T03:30:54.913Z,4.62
2019-02-06T03:33:23.877Z,5.05
2019-02-06T03:35:53.005Z,4.22
2019-02-06T03:38:22.310Z,4.72
2019-02-06T03:40:51.203Z,4.97
2019-02-06T03:43:20.091Z,5.28
2019-02-06T03:45:48.980Z,3.92
2019-02-06T03:48:17.761Z,3.55
2019-02-06T03:50:46.670Z,4.53
2019-02-06T03:53:15.539Z,5.62
2019-02-06T03:55:44.440Z,5.10
2019-02-06T03:58:13.213Z,4.70
2019-02-06T04:00:42.238Z,4.62
2019-02-06T04:03:11.118Z,5.03
2019-02-06T04:05:40.218Z,4.85
2019-02-06T04:08:08.986Z,4.12
2019-02-06T04:10:38.075Z,4.70
2019-02-06T04:13:06.894Z,3.95
2019-02-06T04:15:35.870Z,5.00
2019-02-06T04:18:04.646Z,4.62
2019-02-06T04:20:33.544Z,4.62
2019-02-06T04:23:02.437Z,4.12
2019-02-06T04:25:31.626Z,5.53
2019-02-06T04:28:00.626Z,4.62
2019-02-06T04:30:29.515Z,5.62
2019-02-06T04:32:58.414Z,6.42
2019-02-06T04:35:27.296Z,6.80
2019-02-06T04:37:56.195Z,6.40
2019-02-06T04:40:25.085Z,6.55
2019-02-06T04:42:53.970Z,5.95
2019-02-06T04:45:22.872Z,6.60
2019-02-06T04:47:51.761Z,5.45
2019-02-06T04:50:20.744Z,6.75
2019-02-06T04:52:49.532Z,6.70
2019-02-06T04:55:18.797Z,6.35
2019-02-06T04:57:48.030Z,6.45
2019-02-06T05:00:25.420Z,6.37
2019-02-06T05:02:54.310Z,5.35
2019-02-06T05:05:23.100Z,7.55
2019-02-06T05:07:51.880Z,6.45
2019-02-06T05:10:21.019Z,6.08
2019-02-06T05:12:49.975Z,6.53
2019-02-06T05:15:18.860Z,6.15
2019-02-06T05:17:47.860Z,6.35
2019-02-06T05:20:28.840Z,5.17
2019-02-06T05:22:57.939Z,5.95
2019-02-06T05:25:27.119Z,6.08
2019-02-06T05:27:56.221Z,6.00
2019-02-06T05:30:25.217Z,5.30
2019-02-06T05:32:54.100Z,4.87
2019-02-06T05:35:22.997Z,4.95
2019-02-06T05:37:51.779Z,5.25
2019-02-06T05:40:21.397Z,6.10
2019-02-06T05:42:52.633Z,7.58
2019-02-06T05:45:21.839Z,6.42
2019-02-06T05:47:50.824Z,4.90
2019-02-06T05:50:20.024Z,5.55
2019-02-06T05:52:49.164Z,4.87
2019-02-06T05:55:18.214Z,6.35
2019-02-06T05:57:47.615Z,4.92
2019-02-06T06:00:19.140Z,5.60
2019-02-06T06:02:48.060Z,6.42
2019-02-06T06:05:17.055Z,5.75
2019-02-06T06:07:46.143Z,5.75
2019-02-06T06:10:19.642Z,5.08
2019-02-06T06:12:48.853Z,5.67
2019-02-06T06:15:19.351Z,5.20
2019-02-06T06:17:48.266Z,6.05
2019-02-06T06:20:20.539Z,4.67
2019-02-06T06:22:49.530Z,5.70
2019-02-06T06:25:19.628Z,4.50
2019-02-06T06:27:48.856Z,4.83
2019-02-06T06:30:21.612Z,5.12
2019-02-06T06:32:50.620Z,5.42
2019-02-06T06:35:19.394Z,5.22
2019-02-06T06:37:57.796Z,6.72
2019-02-06T06:40:21.184Z,5.62
2019-02-06T06:42:50.079Z,4.83
2019-02-06T06:45:23.869Z,6.85
2019-02-06T06:47:52.766Z,5.05
2019-02-06T06:50:25.384Z,5.85
2019-02-06T06:52:54.338Z,5.90
2019-02-06T06:55:23.837Z,7.15
2019-02-06T06:57:52.727Z,6.30
2019-02-06T07:00:26.644Z,6.65
2019-02-06T07:02:55.536Z,5.70
2019-02-06T07:05:24.304Z,6.12
2019-02-06T07:07:53.450Z,5.60
2019-02-06T07:10:22.716Z,6.78
2019-02-06T07:12:51.604Z,5.60
2019-02-06T07:15:25.458Z,6.53
2019-02-06T07:17:54.203Z,6.35
2019-02-06T07:20:23.078Z,6.35
2019-02-06T07:22:52.192Z,5.17
2019-02-06T07:25:21.484Z,7.37
2019-02-06T07:27:50.609Z,5.05
2019-02-06T07:30:22.970Z,5.05
2019-02-06T07:32:51.838Z,6.60
2019-02-06T07:35:20.829Z,5.97
2019-02-06T07:37:49.719Z,6.33
2019-02-06T07:40:19.329Z,7.72
2019-02-06T07:42:48.227Z,6.15
2019-02-06T07:45:18.335Z,7.53
2019-02-06T07:47:47.239Z,8.18
2019-02-06T07:50:24.748Z,5.95
2019-02-06T07:52:53.609Z,7.20
2019-02-06T07:55:22.499Z,6.55
2019-02-06T07:57:51.489Z,7.33
2019-02-06T08:00:20.385Z,7.33
2019-02-06T08:02:49.397Z,7.58
2019-02-06T08:05:22.113Z,5.97
2019-02-06T08:07:51.254Z,8.85
2019-02-06T08:10:25.883Z,8.48
2019-02-06T08:12:54.666Z,8.05
2019-02-06T08:15:23.594Z,6.33
2019-02-06T08:17:52.652Z,6.83
2019-02-06T08:20:23.814Z,6.83
2019-02-06T08:22:53.203Z,6.87
2019-02-06T08:25:24.243Z,8.43
2019-02-06T08:27:53.134Z,8.10
2019-02-06T08:30:28.063Z,6.75
2019-02-06T08:32:56.963Z,5.87
2019-02-06T08:35:25.739Z,7.03
2019-02-06T08:37:54.986Z,7.70
2019-02-06T08:40:31.424Z,8.40
2019-02-06T08:43:00.254Z,8.03
2019-02-06T08:45:29.191Z,7.08
2019-02-06T08:47:58.081Z,8.48
2019-02-06T08:50:27.754Z,5.55
2019-02-06T08:52:59.055Z,9.83
2019-02-06T08:55:30.391Z,8.50
2019-02-06T08:57:59.270Z,10.05
2019-02-06T09:00:32.630Z,7.47
2019-02-06T09:03:01.655Z,10.80
2019-02-06T09:05:30.974Z,8.15
2019-02-06T09:07:59.951Z,9.88
2019-02-06T09:10:30.284Z,10.35
2019-02-06T09:12:59.684Z,11.28
2019-02-06T09:15:28.770Z,9.80
2019-02-06T09:17:57.770Z,8.83
2019-02-06T09:20:27.957Z,7.20
2019-02-06T09:22:56.775Z,8.43
2019-02-06T09:28:27.115Z,7.85
2019-02-06T09:30:55.931Z,12.75
2019-02-06T09:33:25.230Z,7.25
2019-02-06T09:35:54.409Z,7.62
2019-02-06T09:38:23.287Z,10.95
2019-02-06T09:40:52.215Z,7.87
2019-02-06T09:43:21.400Z,9.43
2019-02-06T09:45:50.490Z,12.70
2019-02-06T09:48:19.394Z,9.93
2019-02-06T09:50:48.550Z,9.18
2019-02-06T09:53:17.349Z,9.73
2019-02-06T09:55:46.248Z,13.55
2019-02-06T09:58:15.398Z,8.08
2019-02-06T10:00:44.970Z,9.15
2019-02-06T10:03:14.202Z,9.05
2019-02-06T10:05:43.643Z,7.97
2019-02-06T10:08:12.937Z,7.60
2019-02-06T10:10:41.846Z,8.63
2019-02-06T10:13:10.836Z,9.15
2019-02-06T10:15:39.948Z,8.93
2019-02-06T10:18:08.938Z,12.75
2019-02-06T10:20:40.790Z,10.18
2019-02-06T10:23:09.670Z,10.70
2019-02-06T10:25:39.789Z,8.20
2019-02-06T10:28:08.685Z,8.18
2019-02-06T10:30:43.205Z,9.45
2019-02-06T10:33:12.210Z,10.98
2019-02-06T10:35:42.953Z,10.38
2019-02-06T10:38:11.830Z,10.32
2019-02-06T10:40:40.848Z,6.80
2019-02-06T10:43:10.370Z,7.85
2019-02-06T10:45:40.058Z,6.95
2019-02-06T10:48:09.147Z,12.35
2019-02-06T10:50:44.264Z,10.35
2019-02-06T10:53:13.171Z,10.32
2019-02-06T10:55:42.041Z,8.45
2019-02-06T10:58:11.140Z,10.53
2019-02-06T11:00:47.510Z,8.28
2019-02-06T11:03:16.495Z,8.30
2019-02-06T11:05:45.412Z,11.30
2019-02-06T11:08:14.291Z,7.80
2019-02-06T11:10:43.265Z,8.95
2019-02-06T11:13:12.170Z,7.00
2019-02-06T11:15:41.070Z,7.58
2019-02-06T11:18:10.150Z,10.45
2019-02-06T11:20:39.975Z,7.47
2019-02-06T11:23:08.950Z,7.92
2019-02-06T11:25:38.045Z,8.18
2019-02-06T11:28:07.312Z,9.45
2019-02-06T11:30:37.768Z,6.87
2019-02-06T11:33:07.190Z,9.63
2019-02-06T11:35:36.090Z,8.60
2019-02-06T11:38:06.136Z,7.67
2019-02-06T11:40:35.577Z,7.37
2019-02-06T11:43:04.658Z,7.87
2019-02-06T11:45:38.496Z,9.43
2019-02-06T11:48:07.591Z,8.40
2019-02-06T11:50:43.556Z,6.15
2019-02-06T11:53:14.887Z,9.60
2019-02-06T11:55:43.898Z,7.97
2019-02-06T11:58:12.891Z,8.85
2019-02-06T12:00:43.490Z,7.03
2019-02-06T12:03:12.418Z,8.50
2019-02-06T12:05:41.290Z,8.88
2019-02-06T12:08:12.414Z,9.03
2019-02-06T12:10:40.818Z,8.43
2019-02-06T12:13:09.846Z,7.80
2019-02-06T12:15:38.810Z,8.88
2019-02-06T12:18:07.892Z,10.32
2019-02-06T12:20:36.990Z,7.80
2019-02-06T12:23:05.774Z,8.48
2019-02-06T12:25:34.887Z,9.08
2019-02-06T12:28:05.212Z,10.65
2019-02-06T12:30:39.177Z,8.95
2019-02-06T12:33:08.132Z,6.85
2019-02-06T12:35:37.127Z,7.78
2019-02-06T12:38:06.291Z,6.92
2019-02-06T12:40:35.291Z,10.75
2019-02-06T12:43:06.442Z,6.15
2019-02-06T12:45:35.829Z,8.13
2019-02-06T12:48:05.020Z,7.70
2019-02-06T12:50:33.912Z,7.55
2019-02-06T12:53:03.138Z,7.90
2019-02-06T12:55:35.089Z,7.15
2019-02-06T12:58:04.086Z,7.03
2019-02-06T13:00:34.882Z,7.47
2019-02-06T13:03:03.810Z,6.33
2019-02-06T13:05:32.680Z,7.45
2019-02-06T13:08:01.680Z,9.35
2019-02-06T13:10:33.944Z,7.17
2019-02-06T13:13:01.110Z,6.45
2019-02-06T13:15:30.061Z,7.03
2019-02-06T13:17:58.774Z,7.25
2019-02-06T13:20:32.881Z,9.98
2019-02-06T13:23:01.904Z,8.83
2019-02-06T13:25:30.875Z,8.23
2019-02-06T13:27:59.771Z,8.43
2019-02-06T13:30:36.609Z,8.53
2019-02-06T13:33:06.909Z,8.03
2019-02-06T13:35:36.353Z,6.85
2019-02-06T13:38:05.287Z,7.28
2019-02-06T13:40:45.286Z,6.95
2019-02-06T13:43:05.005Z,7.15
2019-02-06T13:45:37.239Z,8.88
2019-02-06T13:48:06.170Z,8.28
2019-02-06T13:50:35.134Z,7.78
2019-02-06T13:53:04.015Z,8.18
2019-02-06T13:55:33.069Z,5.15
2019-02-06T13:58:02.023Z,7.00
2019-02-06T14:00:36.558Z,5.87
2019-02-06T14:03:05.770Z,6.50
2019-02-06T14:05:34.762Z,6.55
2019-02-06T14:08:06.490Z,9.58
2019-02-06T14:10:35.833Z,9.05
2019-02-06T14:13:05.157Z,9.13
2019-02-06T14:15:36.752Z,6.40
2019-02-06T14:18:05.520Z,10.63
2019-02-06T14:20:34.430Z,6.83
2019-02-06T14:23:09.452Z,7.78
2019-02-06T14:25:53.488Z,8.80
2019-02-06T14:28:45.090Z,10.20
2019-02-06T14:31:38.398Z,5.78
2019-02-06T14:34:13.330Z,9.85
2019-02-06T14:36:57.496Z,6.97
2019-02-06T14:39:32.710Z,10.45
2019-02-06T14:42:10.929Z,8.83
2019-02-06T14:44:45.961Z,7.42
2019-02-06T14:47:26.457Z,6.50
2019-02-06T14:50:01.344Z,7.42
2019-02-06T14:52:48.247Z,6.53
2019-02-06T14:55:41.840Z,6.60
2019-02-06T14:58:46.768Z,8.63
2019-02-06T15:01:24.975Z,6.30
2019-02-06T15:04:12.177Z,6.08
2019-02-06T15:06:44.378Z,7.40
2019-02-06T15:09:39.867Z,8.95
2019-02-06T15:12:26.667Z,9.45
2019-02-06T15:15:14.017Z,7.95
2019-02-06T15:18:04.494Z,9.13
2019-02-06T15:21:03.916Z,12.07
2019-02-06T15:23:36.483Z,12.00
2019-02-06T15:26:14.177Z,12.00
2019-02-06T15:29:01.407Z,9.98
2019-02-06T15:31:54.452Z,7.50
2019-02-06T15:34:41.372Z,8.53
2019-02-06T15:37:16.513Z,8.55
2019-02-06T15:40:08.332Z,10.05
2019-02-06T15:42:46.552Z,13.25
2019-02-06T15:45:36.733Z,6.17
2019-02-06T15:48:27.041Z,8.88
2019-02-06T15:51:08.104Z,7.95
2019-02-06T15:53:48.260Z,8.20
2019-02-06T15:56:37.422Z,13.10
2019-02-06T15:59:21.377Z,9.35
2019-02-06T16:02:10.424Z,10.68
2019-02-06T16:05:05.030Z,9.68
2019-02-06T16:07:39.966Z,9.05
2019-02-06T16:10:44.057Z,7.58
2019-02-06T16:13:46.958Z,9.60
2019-02-06T16:16:35.588Z,8.45
2019-02-06T16:19:31.752Z,13.25
2019-02-06T16:22:03.803Z,9.18
2019-02-06T16:24:41.400Z,11.55
2019-02-06T16:27:17.056Z,12.53
2019-02-06T16:29:59.827Z,10.93
2019-02-06T16:32:34.695Z,8.35
2019-02-06T16:35:18.533Z,10.58
2019-02-06T16:38:16.202Z,8.58
2019-02-06T16:41:03.732Z,6.42
2019-02-06T16:43:38.662Z,13.60
2019-02-06T16:46:16.671Z,11.65
2019-02-06T16:48:51.193Z,8.95
2019-02-06T16:51:23.762Z,8.60
2019-02-06T16:54:17.019Z,8.68
2019-02-06T16:56:59.130Z,8.83
2019-02-06T16:59:36.816Z,8.28
2019-02-06T17:02:17.896Z,6.62
2019-02-06T17:05:09.211Z,6.08
2019-02-06T17:07:46.929Z,7.72
2019-02-06T17:10:21.963Z,8.48
2019-02-06T17:13:02.933Z,8.60
2019-02-06T17:15:53.208Z,6.53
2019-02-06T17:18:28.054Z,7.47
2019-02-06T17:21:12.304Z,6.28
2019-02-06T17:23:50.802Z,5.28
2019-02-06T17:26:31.781Z,8.18
2019-02-06T17:29:16.145Z,8.20
2019-02-06T17:31:54.031Z,8.28
2019-02-06T17:34:38.505Z,9.55
2019-02-06T17:37:16.391Z,10.70
2019-02-06T17:40:03.206Z,10.18
2019-02-06T17:43:00.970Z,8.13
2019-02-06T17:45:38.810Z,9.98
2019-02-06T17:48:13.391Z,8.95
2019-02-06T17:50:54.372Z,8.45
2019-02-06T17:53:32.271Z,9.68
2019-02-06T17:56:01.261Z,9.15
2019-02-06T17:58:33.022Z,9.38
2019-02-06T18:01:05.510Z,4.60
2019-02-06T18:03:37.766Z,10.35
2019-02-06T18:06:06.551Z,9.40
2019-02-06T18:08:35.829Z,9.35
2019-02-06T18:11:25.626Z,10.43
2019-02-06T18:13:54.626Z,11.57
2019-02-06T18:16:23.516Z,6.65
2019-02-06T18:18:52.406Z,9.38
2019-02-06T18:21:21.296Z,6.35
2019-02-06T18:23:50.094Z,7.37
2019-02-06T18:26:18.976Z,7.45
2019-02-06T18:28:48.465Z,6.95
2019-02-06T18:31:17.266Z,10.53
2019-02-06T18:33:46.059Z,10.03
2019-02-06T18:36:15.041Z,10.55
2019-02-06T18:38:46.784Z,11.25
2019-02-06T18:41:13.851Z,9.93
2019-02-06T18:43:42.841Z,11.83
2019-02-06T18:46:11.541Z,10.53
2019-02-06T18:48:40.631Z,9.23
2019-02-06T18:51:09.621Z,10.20
2019-02-06T18:53:38.307Z,9.70
2019-02-06T18:56:07.213Z,10.70
2019-02-06T18:58:36.209Z,8.98
2019-02-06T19:01:05.954Z,10.90
2019-02-06T19:03:38.167Z,6.47
2019-02-06T19:06:07.393Z,11.40
2019-02-06T19:08:36.386Z,7.83
2019-02-06T19:11:05.347Z,9.48
2019-02-06T19:13:34.448Z,9.50
2019-02-06T19:16:03.471Z,7.97
2019-02-06T19:18:32.552Z,10.98
2019-02-06T19:21:01.533Z,14.05
2019-02-06T19:23:30.421Z,10.30
2019-02-06T19:25:59.831Z,11.43
2019-02-06T19:28:29.130Z,6.47
2019-02-06T19:30:58.011Z,12.80
2019-02-06T19:33:31.018Z,10.00
2019-02-06T19:36:21.440Z,10.63
2019-02-06T19:38:51.055Z,12.47
2019-02-06T19:41:20.111Z,11.18
2019-02-06T19:43:49.193Z,11.00
2019-02-06T19:46:21.188Z,13.45
2019-02-06T19:48:50.391Z,8.25
2019-02-06T19:51:19.382Z,11.35
2019-02-06T19:53:48.551Z,10.70
2019-02-06T19:56:17.326Z,8.78
2019-02-06T19:58:46.317Z,10.03
2019-02-06T20:01:15.219Z,11.08
2019-02-06T20:03:44.329Z,8.25
2019-02-06T20:06:14.937Z,13.22
2019-02-06T20:08:43.724Z,12.13
2019-02-06T20:11:13.152Z,10.70
2019-02-06T20:13:42.018Z,12.98
2019-02-06T20:16:10.931Z,15.18
2019-02-06T20:18:39.597Z,7.65
2019-02-06T20:21:08.611Z,11.65
2019-02-06T20:23:37.583Z,11.65
2019-02-06T20:26:06.494Z,11.60
2019-02-06T20:28:35.429Z,12.18
2019-02-06T20:31:04.558Z,14.73
2019-02-06T20:33:33.477Z,14.47
2019-02-06T20:36:02.651Z,13.58
2019-02-06T20:38:31.743Z,9.68
2019-02-06T20:41:00.869Z,7.62
2019-02-06T20:43:30.068Z,6.78
2019-02-06T20:45:58.922Z,14.13
2019-02-06T20:48:27.812Z,11.63
2019-02-06T20:50:56.805Z,9.23
2019-02-06T20:53:25.592Z,10.68
2019-02-06T20:55:54.392Z,11.00
2019-02-06T20:58:23.591Z,12.60
2019-02-06T21:00:52.499Z,22.25
2019-02-06T21:03:21.271Z,9.18
2019-02-06T21:05:50.156Z,10.08
2019-02-06T21:08:19.168Z,11.88
2019-02-06T21:10:48.058Z,13.35
2019-02-06T21:13:18.948Z,6.70
2019-02-06T21:15:47.770Z,10.13
2019-02-06T21:18:16.671Z,13.98
2019-02-06T21:20:46.071Z,6.50
2019-02-06T21:23:14.988Z,11.45
2019-02-06T21:25:43.845Z,12.40
2019-02-06T21:28:12.951Z,9.60
2019-02-06T21:30:43.580Z,10.32
2019-02-06T21:33:12.371Z,16.12
2019-02-06T21:35:41.826Z,14.00
2019-02-06T21:38:10.771Z,15.78
2019-02-06T21:40:39.651Z,9.53
2019-02-06T21:43:09.093Z,13.35
2019-02-06T21:45:37.935Z,11.93
2019-02-06T21:48:07.031Z,12.05
2019-02-06T21:50:36.432Z,12.10
2019-02-06T21:53:05.434Z,10.72
2019-02-06T21:55:34.311Z,16.97
2019-02-06T21:58:03.228Z,25.27
2019-02-06T22:00:35.574Z,14.18
2019-02-06T22:03:04.883Z,7.12
2019-02-06T22:05:34.391Z,10.70
2019-02-06T22:08:03.271Z,14.85
2019-02-06T22:10:32.106Z,10.38
2019-02-06T22:13:01.458Z,15.03
2019-02-06T22:15:31.758Z,7.65
2019-02-06T22:18:00.691Z,11.05
2019-02-06T22:20:30.291Z,10.60
2019-02-06T22:22:59.411Z,16.17
2019-02-06T22:25:28.594Z,11.38
2019-02-06T22:27:57.591Z,13.18
2019-02-06T22:30:31.171Z,12.60
2019-02-06T22:33:00.088Z,12.82
2019-02-06T22:35:29.171Z,12.35
2019-02-06T22:37:57.951Z,9.33
2019-02-06T22:40:27.152Z,7.80
2019-02-06T22:42:56.441Z,8.10
2019-02-06T22:45:26.993Z,18.82
2019-02-06T22:47:55.876Z,7.05
2019-02-06T22:50:28.931Z,7.95
2019-02-06T22:52:57.741Z,6.65
2019-02-06T22:55:26.532Z,9.15
2019-02-06T22:57:55.411Z,13.25
2019-02-06T23:00:50.221Z,14.80
2019-02-06T23:03:25.456Z,9.20
2019-02-06T23:05:54.341Z,12.98
2019-02-06T23:08:23.248Z,18.55
2019-02-06T23:10:52.326Z,10.70
2019-02-06T23:13:21.416Z,17.77
2019-02-06T23:15:50.108Z,13.70
2019-02-06T23:18:18.903Z,12.55
2019-02-06T23:20:47.686Z,8.85
2019-02-06T23:23:16.366Z,9.28
2019-02-06T23:25:45.266Z,9.48
2019-02-06T23:28:14.583Z,10.58
2019-02-06T23:30:43.456Z,9.80
2019-02-06T23:33:12.546Z,10.90
2019-02-06T23:35:41.327Z,7.97
2019-02-06T23:38:10.224Z,9.40
2019-02-06T23:43:44.056Z,9.38
2019-02-06T23:46:12.946Z,10.98
2019-02-06T23:48:41.845Z,8.43
2019-02-06T23:51:13.085Z,8.35
2019-02-06T23:53:41.974Z,10.10
2019-02-06T23:56:10.756Z,11.88
2019-02-06T23:58:39.760Z,11.18
